sensor_id;sensor_type;location;lat;lon;timestamp;pressure;altitude;pressure_sealevel;temperature;humidity
30724;BME280;17473;52.286;20.930;2022-08-18T00:01:22;99963.78;;;23.45;83.86
30724;BME280;17473;52.286;20.930;2022-08-18T00:03:50;99965.94;;;23.31;84.27
30724;BME280;17473;52.286;20.930;2022-08-18T00:06:28;99974.09;;;23.27;84.76
30724;BME280;17473;52.286;20.930;2022-08-18T00:09:02;99967.91;;;23.24;84.87
30724;BME280;17473;52.286;20.930;2022-08-18T00:11:34;99958.19;;;23.15;85.42
30724;BME280;17473;52.286;20.930;2022-08-18T00:14:14;99959.78;;;23.25;84.78
30724;BME280;17473;52.286;20.930;2022-08-18T00:16:52;99972.00;;;23.03;85.86
30724;BME280;17473;52.286;20.930;2022-08-18T00:19:21;99978.25;;;23.03;86.25
30724;BME280;17473;52.286;20.930;2022-08-18T00:22:11;99987.22;;;23.02;86.00
30724;BME280;17473;52.286;20.930;2022-08-18T00:24:44;99984.47;;;23.05;86.10
30724;BME280;17473;52.286;20.930;2022-08-18T00:27:16;99995.19;;;23.08;86.04
30724;BME280;17473;52.286;20.930;2022-08-18T00:29:48;99997.94;;;23.05;86.60
30724;BME280;17473;52.286;20.930;2022-08-18T00:32:23;100006.72;;;23.13;85.85
30724;BME280;17473;52.286;20.930;2022-08-18T00:34:53;100006.59;;;23.20;85.96
30724;BME280;17473;52.286;20.930;2022-08-18T00:37:21;100004.09;;;23.10;85.81
30724;BME280;17473;52.286;20.930;2022-08-18T00:39:53;100018.16;;;23.25;85.14
30724;BME280;17473;52.286;20.930;2022-08-18T00:42:28;100023.66;;;23.20;84.75
30724;BME280;17473;52.286;20.930;2022-08-18T00:45:02;100028.41;;;23.06;85.94
30724;BME280;17473;52.286;20.930;2022-08-18T00:47:30;100024.84;;;23.05;86.50
30724;BME280;17473;52.286;20.930;2022-08-18T00:50:18;100036.72;;;22.96;87.15
30724;BME280;17473;52.286;20.930;2022-08-18T00:52:58;100035.03;;;22.91;87.11
30724;BME280;17473;52.286;20.930;2022-08-18T00:55:28;100025.19;;;22.91;87.73
30724;BME280;17473;52.286;20.930;2022-08-18T00:58:12;100022.44;;;22.94;87.68
30724;BME280;17473;52.286;20.930;2022-08-18T01:00:43;100023.03;;;23.07;87.14
30724;BME280;17473;52.286;20.930;2022-08-18T01:03:14;100027.56;;;23.05;87.66
30724;BME280;17473;52.286;20.930;2022-08-18T01:06:16;100027.59;;;23.02;87.58
30724;BME280;17473;52.286;20.930;2022-08-18T01:08:47;100029.16;;;23.12;87.14
30724;BME280;17473;52.286;20.930;2022-08-18T01:11:14;100042.84;;;23.03;87.67
30724;BME280;17473;52.286;20.930;2022-08-18T01:13:42;100045.63;;;22.98;88.20
30724;BME280;17473;52.286;20.930;2022-08-18T01:16:09;100039.50;;;22.93;88.42
30724;BME280;17473;52.286;20.930;2022-08-18T01:18:55;100052.84;;;22.96;88.20
30724;BME280;17473;52.286;20.930;2022-08-18T01:21:48;100054.78;;;22.91;88.33
30724;BME280;17473;52.286;20.930;2022-08-18T01:24:28;100054.16;;;22.78;89.28
30724;BME280;17473;52.286;20.930;2022-08-18T01:27:16;100048.69;;;22.83;88.69
30724;BME280;17473;52.286;20.930;2022-08-18T01:29:46;100038.19;;;22.71;89.28
30724;BME280;17473;52.286;20.930;2022-08-18T01:32:21;100047.88;;;22.79;88.99
30724;BME280;17473;52.286;20.930;2022-08-18T01:34:51;100054.13;;;22.80;88.90
30724;BME280;17473;52.286;20.930;2022-08-18T01:37:22;100052.66;;;22.65;89.64
30724;BME280;17473;52.286;20.930;2022-08-18T01:39:50;100050.78;;;22.69;89.36
30724;BME280;17473;52.286;20.930;2022-08-18T01:42:38;100055.13;;;22.74;89.38
30724;BME280;17473;52.286;20.930;2022-08-18T01:45:06;100059.50;;;22.80;88.77
30724;BME280;17473;52.286;20.930;2022-08-18T01:47:35;100061.19;;;22.86;88.48
30724;BME280;17473;52.286;20.930;2022-08-18T01:50:14;100060.44;;;22.79;88.84
30724;BME280;17473;52.286;20.930;2022-08-18T01:52:41;100070.34;;;22.77;89.30
30724;BME280;17473;52.286;20.930;2022-08-18T01:55:08;100057.88;;;22.73;89.32
30724;BME280;17473;52.286;20.930;2022-08-18T01:57:38;100070.31;;;22.78;89.14
30724;BME280;17473;52.286;20.930;2022-08-18T02:00:11;100057.94;;;22.70;89.48
30724;BME280;17473;52.286;20.930;2022-08-18T02:02:40;100050.81;;;22.67;89.89
30724;BME280;17473;52.286;20.930;2022-08-18T02:05:33;100054.41;;;22.67;89.43
30724;BME280;17473;52.286;20.930;2022-08-18T02:08:01;100050.88;;;22.65;89.67
30724;BME280;17473;52.286;20.930;2022-08-18T02:10:29;100056.28;;;22.62;89.68
30724;BME280;17473;52.286;20.930;2022-08-18T02:12:56;100055.47;;;22.59;90.00
30724;BME280;17473;52.286;20.930;2022-08-18T02:15:23;100053.59;;;22.62;89.91
30724;BME280;17473;52.286;20.930;2022-08-18T02:17:50;100059.03;;;22.61;89.91
30724;BME280;17473;52.286;20.930;2022-08-18T02:20:18;100056.34;;;22.59;90.01
30724;BME280;17473;52.286;20.930;2022-08-18T02:22:46;100062.69;;;22.58;89.73
30724;BME280;17473;52.286;20.930;2022-08-18T02:25:15;100056.56;;;22.50;90.71
30724;BME280;17473;52.286;20.930;2022-08-18T02:27:43;100060.28;;;22.44;91.30
30724;BME280;17473;52.286;20.930;2022-08-18T02:30:16;100057.00;;;22.25;92.04
30724;BME280;17473;52.286;20.930;2022-08-18T02:32:44;100058.50;;;22.42;91.39
30724;BME280;17473;52.286;20.930;2022-08-18T02:35:11;100063.13;;;22.33;91.82
30724;BME280;17473;52.286;20.930;2022-08-18T02:37:40;100058.97;;;22.17;92.65
30724;BME280;17473;52.286;20.930;2022-08-18T02:40:17;100065.97;;;22.26;92.28
30724;BME280;17473;52.286;20.930;2022-08-18T02:42:46;100055.97;;;22.32;91.57
30724;BME280;17473;52.286;20.930;2022-08-18T02:45:13;100064.97;;;22.30;91.77
30724;BME280;17473;52.286;20.930;2022-08-18T02:47:41;100060.78;;;22.16;92.76
30724;BME280;17473;52.286;20.930;2022-08-18T02:50:11;100061.50;;;22.25;92.96
30724;BME280;17473;52.286;20.930;2022-08-18T02:52:38;100060.56;;;22.27;92.42
30724;BME280;17473;52.286;20.930;2022-08-18T02:55:07;100051.03;;;22.11;92.97
30724;BME280;17473;52.286;20.930;2022-08-18T02:57:34;100057.31;;;22.10;93.64
30724;BME280;17473;52.286;20.930;2022-08-18T03:00:03;100064.44;;;22.12;93.53
30724;BME280;17473;52.286;20.930;2022-08-18T03:02:30;100061.50;;;22.25;93.18
30724;BME280;17473;52.286;20.930;2022-08-18T03:04:58;100061.78;;;22.11;93.59
30724;BME280;17473;52.286;20.930;2022-08-18T03:07:25;100060.28;;;21.94;94.51
30724;BME280;17473;52.286;20.930;2022-08-18T03:09:52;100059.13;;;22.08;93.73
30724;BME280;17473;52.286;20.930;2022-08-18T03:12:19;100058.31;;;22.04;93.63
30724;BME280;17473;52.286;20.930;2022-08-18T03:14:46;100059.31;;;22.00;93.98
30724;BME280;17473;52.286;20.930;2022-08-18T03:17:13;100056.53;;;22.04;93.66
30724;BME280;17473;52.286;20.930;2022-08-18T03:19:40;100053.75;;;22.08;93.54
30724;BME280;17473;52.286;20.930;2022-08-18T03:22:12;100047.81;;;21.92;94.37
30724;BME280;17473;52.286;20.930;2022-08-18T03:24:56;100052.16;;;21.99;93.82
30724;BME280;17473;52.286;20.930;2022-08-18T03:27:24;100061.72;;;22.14;92.70
30724;BME280;17473;52.286;20.930;2022-08-18T03:29:51;100056.88;;;21.84;94.27
30724;BME280;17473;52.286;20.930;2022-08-18T03:32:19;100063.19;;;21.82;95.02
30724;BME280;17473;52.286;20.930;2022-08-18T03:34:46;100062.06;;;21.94;94.45
30724;BME280;17473;52.286;20.930;2022-08-18T03:37:13;100061.38;;;21.84;94.67
30724;BME280;17473;52.286;20.930;2022-08-18T03:39:41;100066.59;;;21.93;93.63
30724;BME280;17473;52.286;20.930;2022-08-18T03:42:09;100066.34;;;22.05;93.54
30724;BME280;17473;52.286;20.930;2022-08-18T03:44:36;100077.00;;;22.10;93.23
30724;BME280;17473;52.286;20.930;2022-08-18T03:47:08;100077.88;;;22.12;93.12
30724;BME280;17473;52.286;20.930;2022-08-18T03:49:36;100082.41;;;22.09;93.41
30724;BME280;17473;52.286;20.930;2022-08-18T03:52:08;100076.91;;;22.15;92.90
30724;BME280;17473;52.286;20.930;2022-08-18T03:54:36;100076.91;;;22.16;92.56
30724;BME280;17473;52.286;20.930;2022-08-18T03:57:08;100068.97;;;22.09;92.47
30724;BME280;17473;52.286;20.930;2022-08-18T03:59:36;100068.34;;;22.44;91.11
30724;BME280;17473;52.286;20.930;2022-08-18T04:02:04;100076.47;;;23.26;86.27
30724;BME280;17473;52.286;20.930;2022-08-18T04:04:31;100070.78;;;24.11;81.45
30724;BME280;17473;52.286;20.930;2022-08-18T04:07:06;100078.50;;;24.88;76.83
30724;BME280;17473;52.286;20.930;2022-08-18T04:09:36;100082.00;;;25.50;73.83
30724;BME280;17473;52.286;20.930;2022-08-18T04:12:11;100081.38;;;26.47;68.50
30724;BME280;17473;52.286;20.930;2022-08-18T04:14:46;100072.69;;;26.86;65.78
30724;BME280;17473;52.286;20.930;2022-08-18T04:17:19;100071.63;;;27.59;63.14
30724;BME280;17473;52.286;20.930;2022-08-18T04:19:52;100069.38;;;28.13;59.98
30724;BME280;17473;52.286;20.930;2022-08-18T04:22:21;100083.50;;;28.61;58.60
30724;BME280;17473;52.286;20.930;2022-08-18T04:24:49;100084.41;;;29.57;55.55
30724;BME280;17473;52.286;20.930;2022-08-18T04:27:18;100084.25;;;29.97;53.81
30724;BME280;17473;52.286;20.930;2022-08-18T04:29:46;100073.28;;;30.16;52.53
30724;BME280;17473;52.286;20.930;2022-08-18T04:32:13;100081.47;;;31.17;50.08
30724;BME280;17473;52.286;20.930;2022-08-18T04:34:40;100080.16;;;31.24;48.86
30724;BME280;17473;52.286;20.930;2022-08-18T04:37:08;100081.53;;;31.63;48.21
30724;BME280;17473;52.286;20.930;2022-08-18T04:39:36;100084.72;;;32.02;46.86
30724;BME280;17473;52.286;20.930;2022-08-18T04:42:04;100097.19;;;33.23;44.58
30724;BME280;17473;52.286;20.930;2022-08-18T04:44:32;100100.75;;;33.53;43.56
30724;BME280;17473;52.286;20.930;2022-08-18T04:47:00;100090.25;;;34.27;42.36
30724;BME280;17473;52.286;20.930;2022-08-18T04:49:27;100091.16;;;34.92;40.63
30724;BME280;17473;52.286;20.930;2022-08-18T04:51:57;100086.13;;;35.85;39.06
30724;BME280;17473;52.286;20.930;2022-08-18T04:55:04;100084.97;;;35.76;38.39
30724;BME280;17473;52.286;20.930;2022-08-18T04:57:31;100088.38;;;36.62;37.20
30724;BME280;17473;52.286;20.930;2022-08-18T05:00:01;100083.75;;;36.86;35.84
30724;BME280;17473;52.286;20.930;2022-08-18T05:02:28;100088.91;;;36.90;35.46
30724;BME280;17473;52.286;20.930;2022-08-18T05:04:59;100092.13;;;37.18;35.36
30724;BME280;17473;52.286;20.930;2022-08-18T05:07:27;100093.41;;;37.69;34.59
30724;BME280;17473;52.286;20.930;2022-08-18T05:09:54;100086.56;;;37.85;34.27
30724;BME280;17473;52.286;20.930;2022-08-18T05:12:21;100082.56;;;38.74;32.60
30724;BME280;17473;52.286;20.930;2022-08-18T05:14:52;100070.44;;;38.86;32.20
30724;BME280;17473;52.286;20.930;2022-08-18T05:17:20;100075.59;;;39.90;30.89
30724;BME280;17473;52.286;20.930;2022-08-18T05:19:47;100081.69;;;40.14;30.41
30724;BME280;17473;52.286;20.930;2022-08-18T05:22:15;100086.16;;;40.92;29.51
30724;BME280;17473;52.286;20.930;2022-08-18T05:24:54;100085.91;;;41.41;28.65
30724;BME280;17473;52.286;20.930;2022-08-18T05:27:21;100092.25;;;41.51;28.48
30724;BME280;17473;52.286;20.930;2022-08-18T05:29:48;100083.69;;;41.44;28.45
30724;BME280;17473;52.286;20.930;2022-08-18T05:32:17;100077.75;;;42.56;27.59
30724;BME280;17473;52.286;20.930;2022-08-18T05:35:17;100089.28;;;41.99;27.61
30724;BME280;17473;52.286;20.930;2022-08-18T05:38:32;100082.22;;;42.04;27.23
30724;BME280;17473;52.286;20.930;2022-08-18T05:41:19;100079.91;;;43.05;26.39
30724;BME280;17473;52.286;20.930;2022-08-18T05:43:48;100082.88;;;43.55;25.43
30724;BME280;17473;52.286;20.930;2022-08-18T05:46:22;100089.47;;;43.45;25.23
30724;BME280;17473;52.286;20.930;2022-08-18T05:48:51;100087.84;;;44.11;24.35
30724;BME280;17473;52.286;20.930;2022-08-18T05:51:33;100084.69;;;44.22;24.33
30724;BME280;17473;52.286;20.930;2022-08-18T05:54:04;100089.88;;;44.33;24.46
30724;BME280;17473;52.286;20.930;2022-08-18T05:56:51;100089.50;;;45.49;23.20
30724;BME280;17473;52.286;20.930;2022-08-18T05:59:25;100081.63;;;44.81;24.19
30724;BME280;17473;52.286;20.930;2022-08-18T06:04:59;100086.81;;;46.10;22.72
30724;BME280;17473;52.286;20.930;2022-08-18T06:07:59;100075.06;;;45.45;23.47
30724;BME280;17473;52.286;20.930;2022-08-18T06:10:30;100087.19;;;46.46;22.32
30724;BME280;17473;52.286;20.930;2022-08-18T06:12:59;100081.34;;;46.85;21.57
30724;BME280;17473;52.286;20.930;2022-08-18T06:27:42;100092.31;;;46.57;22.03
30724;BME280;17473;52.286;20.930;2022-08-18T06:30:21;100089.66;;;46.40;21.92
30724;BME280;17473;52.286;20.930;2022-08-18T06:41:44;100086.81;;;46.49;21.05
30724;BME280;17473;52.286;20.930;2022-08-18T06:44:17;100098.31;;;45.84;21.76
30724;BME280;17473;52.286;20.930;2022-08-18T06:49:53;100092.16;;;47.55;20.95
30724;BME280;17473;52.286;20.930;2022-08-18T06:52:28;100092.25;;;47.47;20.41
30724;BME280;17473;52.286;20.930;2022-08-18T06:55:05;100100.56;;;45.66;21.73
30724;BME280;17473;52.286;20.930;2022-08-18T06:57:34;100100.09;;;46.62;20.60
30724;BME280;17473;52.286;20.930;2022-08-18T07:00:22;100097.69;;;46.20;22.09
30724;BME280;17473;52.286;20.930;2022-08-18T07:03:20;100104.88;;;45.68;21.69
30724;BME280;17473;52.286;20.930;2022-08-18T07:08:40;100103.13;;;46.37;21.35
30724;BME280;17473;52.286;20.930;2022-08-18T07:11:31;100096.16;;;46.71;20.97
30724;BME280;17473;52.286;20.930;2022-08-18T07:14:22;100106.53;;;45.62;21.80
30724;BME280;17473;52.286;20.930;2022-08-18T07:17:21;100104.66;;;45.78;22.10
30724;BME280;17473;52.286;20.930;2022-08-18T07:20:20;100097.03;;;46.86;20.62
30724;BME280;17473;52.286;20.930;2022-08-18T07:23:01;100100.69;;;47.02;20.21
30724;BME280;17473;52.286;20.930;2022-08-18T07:25:41;100113.13;;;45.30;21.62
30724;BME280;17473;52.286;20.930;2022-08-18T07:28:44;100106.59;;;44.42;22.68
30724;BME280;17473;52.286;20.930;2022-08-18T07:31:33;100111.03;;;43.68;22.94
30724;BME280;17473;52.286;20.930;2022-08-18T07:34:31;100102.72;;;43.17;23.52
30724;BME280;17473;52.286;20.930;2022-08-18T07:37:55;100090.22;;;42.78;24.40
30724;BME280;17473;52.286;20.930;2022-08-18T07:40:34;100095.63;;;42.80;24.53
30724;BME280;17473;52.286;20.930;2022-08-18T07:43:19;100091.81;;;43.24;23.78
30724;BME280;17473;52.286;20.930;2022-08-18T07:45:50;100085.63;;;42.95;24.36
30724;BME280;17473;52.286;20.930;2022-08-18T07:48:30;100084.31;;;43.75;23.87
30724;BME280;17473;52.286;20.930;2022-08-18T07:51:22;100103.31;;;41.97;24.56
30724;BME280;17473;52.286;20.930;2022-08-18T07:53:53;100094.81;;;41.99;24.99
30724;BME280;17473;52.286;20.930;2022-08-18T07:56:52;100095.22;;;41.68;25.64
30724;BME280;17473;52.286;20.930;2022-08-18T08:00:20;100091.59;;;40.16;27.63
30724;BME280;17473;52.286;20.930;2022-08-18T08:02:30;100092.97;;;40.70;26.94
30724;BME280;17473;52.286;20.930;2022-08-18T08:08:24;100096.16;;;41.58;26.38
30724;BME280;17473;52.286;20.930;2022-08-18T08:11:12;100094.38;;;42.30;24.81
30724;BME280;17473;52.286;20.930;2022-08-18T08:25:25;100105.38;;;39.57;27.85
30724;BME280;17473;52.286;20.930;2022-08-18T08:36:45;100106.91;;;40.78;27.13
30724;BME280;17473;52.286;20.930;2022-08-18T08:39:54;100114.94;;;39.43;28.86
30724;BME280;17473;52.286;20.930;2022-08-18T08:42:39;100125.13;;;38.17;29.90
30724;BME280;17473;52.286;20.930;2022-08-18T08:45:22;100116.03;;;37.06;31.26
30724;BME280;17473;52.286;20.930;2022-08-18T08:48:21;100116.28;;;37.70;31.50
30724;BME280;17473;52.286;20.930;2022-08-18T08:53:48;100112.66;;;38.02;31.01
30724;BME280;17473;52.286;20.930;2022-08-18T08:56:27;100114.63;;;37.46;31.34
30724;BME280;17473;52.286;20.930;2022-08-18T08:59:02;100112.66;;;37.03;31.54
30724;BME280;17473;52.286;20.930;2022-08-18T09:04:55;100102.91;;;36.99;30.93
30724;BME280;17473;52.286;20.930;2022-08-18T09:11:12;100089.31;;;37.85;30.02
30724;BME280;17473;52.286;20.930;2022-08-18T09:17:20;100088.97;;;37.78;29.84
30724;BME280;17473;52.286;20.930;2022-08-18T09:28:17;100085.13;;;35.37;33.49
30724;BME280;17473;52.286;20.930;2022-08-18T09:37:12;100067.69;;;35.01;34.31
30724;BME280;17473;52.286;20.930;2022-08-18T09:39:59;100078.75;;;35.85;32.98
30724;BME280;17473;52.286;20.930;2022-08-18T09:43:14;100073.25;;;35.37;33.67
30724;BME280;17473;52.286;20.930;2022-08-18T09:56:14;100063.81;;;36.37;32.65
30724;BME280;17473;52.286;20.930;2022-08-18T09:58:57;100070.75;;;36.42;32.87
30724;BME280;17473;52.286;20.930;2022-08-18T10:01:38;100071.63;;;36.54;31.47
30724;BME280;17473;52.286;20.930;2022-08-18T10:04:18;100073.19;;;35.63;33.36
30724;BME280;17473;52.286;20.930;2022-08-18T10:07:33;100070.59;;;35.72;33.44
30724;BME280;17473;52.286;20.930;2022-08-18T10:13:47;100070.75;;;35.82;32.57
30724;BME280;17473;52.286;20.930;2022-08-18T10:20:13;100074.75;;;35.54;33.29
30724;BME280;17473;52.286;20.930;2022-08-18T10:23:06;100068.72;;;35.73;32.80
30724;BME280;17473;52.286;20.930;2022-08-18T10:25:43;100074.00;;;35.76;32.89
30724;BME280;17473;52.286;20.930;2022-08-18T10:28:53;100074.16;;;34.23;34.73
30724;BME280;17473;52.286;20.930;2022-08-18T10:31:21;100068.09;;;34.05;34.89
30724;BME280;17473;52.286;20.930;2022-08-18T10:34:09;100076.31;;;34.30;33.64
30724;BME280;17473;52.286;20.930;2022-08-18T10:36:58;100081.81;;;33.77;35.22
30724;BME280;17473;52.286;20.930;2022-08-18T10:45:18;100087.16;;;34.06;34.73
30724;BME280;17473;52.286;20.930;2022-08-18T10:53:50;100091.19;;;33.73;35.32
30724;BME280;17473;52.286;20.930;2022-08-18T10:56:53;100083.13;;;33.84;35.96
30724;BME280;17473;52.286;20.930;2022-08-18T11:05:21;100079.09;;;34.56;33.37
30724;BME280;17473;52.286;20.930;2022-08-18T11:08:01;100085.00;;;34.76;33.04
30724;BME280;17473;52.286;20.930;2022-08-18T11:10:46;100085.75;;;34.26;33.60
30724;BME280;17473;52.286;20.930;2022-08-18T11:13:58;100079.84;;;34.71;33.42
30724;BME280;17473;52.286;20.930;2022-08-18T11:19:22;100085.88;;;33.84;33.81
30724;BME280;17473;52.286;20.930;2022-08-18T11:21:53;100080.78;;;33.93;33.42
30724;BME280;17473;52.286;20.930;2022-08-18T11:24:29;100080.66;;;34.47;33.25
30724;BME280;17473;52.286;20.930;2022-08-18T11:27:05;100072.06;;;34.26;33.50
30724;BME280;17473;52.286;20.930;2022-08-18T11:29:43;100067.56;;;34.12;33.38
30724;BME280;17473;52.286;20.930;2022-08-18T11:32:27;100064.16;;;33.96;33.57
30724;BME280;17473;52.286;20.930;2022-08-18T11:51:24;100055.38;;;32.65;34.76
30724;BME280;17473;52.286;20.930;2022-08-18T11:54:18;100044.75;;;32.89;35.10
30724;BME280;17473;52.286;20.930;2022-08-18T11:56:49;100048.13;;;32.64;34.89
30724;BME280;17473;52.286;20.930;2022-08-18T12:02:16;100024.56;;;32.49;35.98
30724;BME280;17473;52.286;20.930;2022-08-18T12:04:50;100025.50;;;32.76;35.90
30724;BME280;17473;52.286;20.930;2022-08-18T12:07:33;100032.63;;;32.93;35.52
30724;BME280;17473;52.286;20.930;2022-08-18T12:10:22;100022.06;;;32.15;36.34
30724;BME280;17473;52.286;20.930;2022-08-18T12:12:55;100028.09;;;32.06;35.99
30724;BME280;17473;52.286;20.930;2022-08-18T12:15:34;100028.53;;;32.43;35.38
30724;BME280;17473;52.286;20.930;2022-08-18T12:18:10;100021.41;;;32.55;35.06
30724;BME280;17473;52.286;20.930;2022-08-18T12:20:56;100018.97;;;32.50;35.30
30724;BME280;17473;52.286;20.930;2022-08-18T12:23:24;100011.19;;;32.44;35.67
30724;BME280;17473;52.286;20.930;2022-08-18T12:25:51;100021.31;;;32.56;35.48
30724;BME280;17473;52.286;20.930;2022-08-18T12:28:22;100023.47;;;32.51;35.53
30724;BME280;17473;52.286;20.930;2022-08-18T12:30:54;100018.38;;;32.59;35.74
30724;BME280;17473;52.286;20.930;2022-08-18T12:33:23;100021.59;;;32.81;35.76
30724;BME280;17473;52.286;20.930;2022-08-18T12:35:51;100025.22;;;32.67;36.05
30724;BME280;17473;52.286;20.930;2022-08-18T12:38:18;100017.56;;;33.01;35.16
30724;BME280;17473;52.286;20.930;2022-08-18T12:40:45;100022.28;;;32.99;35.16
30724;BME280;17473;52.286;20.930;2022-08-18T12:43:12;100006.88;;;32.83;35.28
30724;BME280;17473;52.286;20.930;2022-08-18T12:45:40;100013.28;;;32.97;34.97
30724;BME280;17473;52.286;20.930;2022-08-18T12:48:08;100021.38;;;32.69;34.92
30724;BME280;17473;52.286;20.930;2022-08-18T12:50:37;100008.63;;;32.41;36.14
30724;BME280;17473;52.286;20.930;2022-08-18T12:53:21;100008.31;;;32.60;36.20
30724;BME280;17473;52.286;20.930;2022-08-18T12:56:23;100004.03;;;32.70;35.87
30724;BME280;17473;52.286;20.930;2022-08-18T12:58:51;100011.59;;;33.08;35.38
30724;BME280;17473;52.286;20.930;2022-08-18T13:01:19;100010.09;;;32.90;36.18
30724;BME280;17473;52.286;20.930;2022-08-18T13:03:51;100003.66;;;32.62;36.41
30724;BME280;17473;52.286;20.930;2022-08-18T13:06:47;99994.50;;;32.49;36.60
30724;BME280;17473;52.286;20.930;2022-08-18T13:09:32;100003.53;;;32.92;36.16
30724;BME280;17473;52.286;20.930;2022-08-18T13:12:19;100001.88;;;32.18;37.15
30724;BME280;17473;52.286;20.930;2022-08-18T13:14:47;99998.56;;;32.41;36.53
30724;BME280;17473;52.286;20.930;2022-08-18T13:17:17;99992.03;;;32.15;37.08
30724;BME280;17473;52.286;20.930;2022-08-18T13:20:09;99992.16;;;32.42;36.21
30724;BME280;17473;52.286;20.930;2022-08-18T13:22:39;99991.41;;;32.10;37.49
30724;BME280;17473;52.286;20.930;2022-08-18T13:25:11;99984.50;;;32.19;37.06
30724;BME280;17473;52.286;20.930;2022-08-18T13:27:58;99992.25;;;32.26;37.40
30724;BME280;17473;52.286;20.930;2022-08-18T13:30:27;99985.19;;;32.08;38.08
30724;BME280;17473;52.286;20.930;2022-08-18T13:33:01;99982.09;;;32.28;37.37
30724;BME280;17473;52.286;20.930;2022-08-18T13:35:49;99978.78;;;32.09;38.14
30724;BME280;17473;52.286;20.930;2022-08-18T13:38:22;99979.56;;;32.40;37.52
30724;BME280;17473;52.286;20.930;2022-08-18T13:40:56;99975.25;;;32.07;38.34
30724;BME280;17473;52.286;20.930;2022-08-18T13:43:31;99972.06;;;32.58;37.42
30724;BME280;17473;52.286;20.930;2022-08-18T13:46:01;99975.75;;;32.57;37.04
30724;BME280;17473;52.286;20.930;2022-08-18T13:48:29;99979.25;;;32.73;36.39
30724;BME280;17473;52.286;20.930;2022-08-18T13:50:59;99967.13;;;32.77;37.02
30724;BME280;17473;52.286;20.930;2022-08-18T13:53:29;99969.09;;;32.61;37.38
30724;BME280;17473;52.286;20.930;2022-08-18T13:55:57;99962.66;;;32.76;36.81
30724;BME280;17473;52.286;20.930;2022-08-18T13:58:27;99957.97;;;32.93;36.68
30724;BME280;17473;52.286;20.930;2022-08-18T14:01:01;99961.97;;;32.87;37.28
30724;BME280;17473;52.286;20.930;2022-08-18T14:03:48;99973.47;;;32.63;38.51
30724;BME280;17473;52.286;20.930;2022-08-18T14:06:16;99961.44;;;32.53;38.06
30724;BME280;17473;52.286;20.930;2022-08-18T14:08:51;99960.72;;;32.78;37.28
30724;BME280;17473;52.286;20.930;2022-08-18T14:11:24;99961.75;;;32.90;37.97
30724;BME280;17473;52.286;20.930;2022-08-18T14:13:58;99958.91;;;33.19;36.53
30724;BME280;17473;52.286;20.930;2022-08-18T14:16:27;99961.09;;;32.72;37.92
30724;BME280;17473;52.286;20.930;2022-08-18T14:18:56;99964.75;;;32.44;38.71
30724;BME280;17473;52.286;20.930;2022-08-18T14:21:49;99960.63;;;32.37;38.74
30724;BME280;17473;52.286;20.930;2022-08-18T14:24:44;99956.91;;;32.67;38.48
30724;BME280;17473;52.286;20.930;2022-08-18T14:27:36;99961.00;;;32.88;38.18
30724;BME280;17473;52.286;20.930;2022-08-18T14:30:08;99961.38;;;32.68;38.54
30724;BME280;17473;52.286;20.930;2022-08-18T14:32:36;99959.03;;;32.76;38.21
30724;BME280;17473;52.286;20.930;2022-08-18T14:35:15;99966.88;;;32.39;38.75
30724;BME280;17473;52.286;20.930;2022-08-18T14:38:03;99955.94;;;31.81;39.69
30724;BME280;17473;52.286;20.930;2022-08-18T14:40:31;99963.72;;;31.87;39.92
30724;BME280;17473;52.286;20.930;2022-08-18T14:42:59;99958.53;;;31.82;39.89
30724;BME280;17473;52.286;20.930;2022-08-18T14:45:32;99955.81;;;31.82;39.87
30724;BME280;17473;52.286;20.930;2022-08-18T14:48:05;99961.78;;;31.89;40.04
30724;BME280;17473;52.286;20.930;2022-08-18T14:50:38;99956.97;;;31.78;40.51
30724;BME280;17473;52.286;20.930;2022-08-18T14:53:20;99963.72;;;31.87;40.48
30724;BME280;17473;52.286;20.930;2022-08-18T14:55:51;99958.66;;;31.95;40.27
30724;BME280;17473;52.286;20.930;2022-08-18T14:58:24;99957.41;;;32.15;39.59
30724;BME280;17473;52.286;20.930;2022-08-18T15:01:03;99975.47;;;32.18;40.04
30724;BME280;17473;52.286;20.930;2022-08-18T15:03:37;99979.88;;;31.76;40.68
30724;BME280;17473;52.286;20.930;2022-08-18T15:06:06;99972.78;;;31.88;40.39
30724;BME280;17473;52.286;20.930;2022-08-18T15:08:42;99976.97;;;31.93;40.69
30724;BME280;17473;52.286;20.930;2022-08-18T15:11:12;99978.56;;;32.12;40.46
30724;BME280;17473;52.286;20.930;2022-08-18T15:13:42;99979.44;;;32.12;40.36
30724;BME280;17473;52.286;20.930;2022-08-18T15:16:13;99982.66;;;32.05;40.54
30724;BME280;17473;52.286;20.930;2022-08-18T15:18:42;99987.28;;;31.74;41.40
30724;BME280;17473;52.286;20.930;2022-08-18T15:21:10;99985.38;;;31.90;41.01
30724;BME280;17473;52.286;20.930;2022-08-18T15:24:06;99978.72;;;31.49;41.29
30724;BME280;17473;52.286;20.930;2022-08-18T15:26:54;99989.34;;;31.54;41.34
30724;BME280;17473;52.286;20.930;2022-08-18T15:29:25;99971.00;;;31.56;41.12
30724;BME280;17473;52.286;20.930;2022-08-18T15:31:57;99968.00;;;31.61;41.41
30724;BME280;17473;52.286;20.930;2022-08-18T15:34:30;99960.44;;;31.66;41.10
30724;BME280;17473;52.286;20.930;2022-08-18T15:36:58;99965.38;;;31.90;40.51
30724;BME280;17473;52.286;20.930;2022-08-18T15:39:35;99963.94;;;31.98;40.53
30724;BME280;17473;52.286;20.930;2022-08-18T15:42:09;99966.78;;;32.11;39.79
30724;BME280;17473;52.286;20.930;2022-08-18T15:44:37;99968.59;;;32.11;40.08
30724;BME280;17473;52.286;20.930;2022-08-18T15:47:05;99963.13;;;31.82;39.90